Time;durP1;ratioP1;P1;durP2;ratioP2;P2;SDS_P1;SDS_P2;PMS_P1;PMS_P2;Temp;Humidity;BMP_temperature;BMP_pressure;BME280_temperature;BME280_humidity;BME280_pressure;Samples;Min_cycle;Max_cycle;Signal;HPM_P1;HPM_P2
2021/06/19 00:01:14;;;;;;;4.05;1.80;;;;;;;25.49;56.55;101180.94;5073563;28;20020;-60
2021/06/19 00:03:40;;;;;;;3.65;1.80;;;;;;;25.48;56.79;101173.13;5073745;28;20082;-59
2021/06/19 00:06:08;;;;;;;3.47;1.83;;;;;;;25.48;56.60;101176.59;5074183;28;20020;-59
2021/06/19 00:08:33;;;;;;;3.08;1.70;;;;;;;25.48;56.54;101175.78;5074170;28;20472;-59
2021/06/19 00:11:02;;;;;;;3.67;2.00;;;;;;;25.47;56.63;101177.63;5072939;28;20024;-60
2021/06/19 00:13:28;;;;;;;3.63;1.60;;;;;;;25.47;56.31;101177.63;5074069;28;20029;-59
2021/06/19 00:15:53;;;;;;;3.05;1.73;;;;;;;25.46;56.46;101181.28;5073496;28;20097;-60
2021/06/19 00:18:20;;;;;;;3.37;1.87;;;;;;;25.44;56.52;101174.47;5072963;28;20053;-60
2021/06/19 00:20:46;;;;;;;4.15;1.70;;;;;;;25.47;56.17;101187.47;5073970;28;20764;-60
2021/06/19 00:23:12;;;;;;;2.83;1.60;;;;;;;25.45;56.24;101179.63;5073942;28;20029;-59
2021/06/19 00:25:37;;;;;;;3.67;1.70;;;;;;;25.45;56.52;101184.97;5073420;28;20028;-60
2021/06/19 00:28:03;;;;;;;3.05;1.70;;;;;;;25.45;56.49;101184.13;5073663;28;20021;-60
2021/06/19 00:30:28;;;;;;;3.13;1.60;;;;;;;25.44;56.08;101179.81;5073260;28;20039;-60
2021/06/19 00:32:53;;;;;;;3.45;1.73;;;;;;;25.45;56.38;101181.44;5073982;28;20020;-60
2021/06/19 00:35:20;;;;;;;3.05;1.60;;;;;;;25.42;56.21;101177.28;5073686;28;20035;-59
2021/06/19 00:37:47;;;;;;;2.92;1.60;;;;;;;25.43;56.51;101183.44;5073034;28;20028;-60
2021/06/19 00:40:14;;;;;;;3.00;1.90;;;;;;;25.43;56.32;101184.28;5073549;28;20028;-60
2021/06/19 00:42:40;;;;;;;3.17;1.70;;;;;;;25.42;56.42;101182.63;5073649;28;20072;-60
2021/06/19 00:45:07;;;;;;;2.58;1.63;;;;;;;25.42;56.61;101187.97;5071490;28;20029;-59
2021/06/19 00:47:37;;;;;;;3.20;1.80;;;;;;;25.41;56.28;101174.78;5073461;28;20490;-59
2021/06/19 00:50:03;;;;;;;3.88;1.60;;;;;;;25.37;56.29;101174.25;5073633;28;20468;-60
2021/06/19 00:52:28;;;;;;;3.58;1.67;;;;;;;25.41;56.47;101188.97;5072587;28;20028;-60
2021/06/19 00:54:54;;;;;;;3.10;1.70;;;;;;;25.41;56.32;101193.47;5073413;28;20464;-60
2021/06/19 00:57:23;;;;;;;2.67;1.50;;;;;;;25.42;56.21;101187.09;5072898;28;20351;-60
2021/06/19 00:59:48;;;;;;;3.42;1.83;;;;;;;25.40;56.21;101189.94;5072369;28;20488;-60
2021/06/19 01:02:16;;;;;;;3.15;1.58;;;;;;;25.40;56.42;101197.94;5073152;28;20029;-60
2021/06/19 01:04:42;;;;;;;2.63;1.50;;;;;;;25.39;56.32;101198.09;5073303;28;20028;-59
2021/06/19 01:07:07;;;;;;;3.55;1.70;;;;;;;25.39;56.69;101209.63;5072252;28;20025;-60
2021/06/19 01:09:33;;;;;;;3.53;1.92;;;;;;;25.39;56.66;101204.31;5073197;28;20479;-60
2021/06/19 01:11:58;;;;;;;3.65;2.10;;;;;;;25.39;56.69;101206.97;5073038;28;20056;-60
2021/06/19 01:14:24;;;;;;;3.15;1.67;;;;;;;25.38;56.11;101205.28;5071880;28;20985;-60
2021/06/19 01:16:50;;;;;;;2.88;1.70;;;;;;;25.37;56.09;101195.59;5073151;28;20035;-60
2021/06/19 01:19:16;;;;;;;3.55;1.83;;;;;;;25.37;56.17;101192.94;5072445;28;20097;-60
2021/06/19 01:21:41;;;;;;;3.20;1.70;;;;;;;25.38;56.11;101193.78;5072167;28;20028;-60
2021/06/19 01:24:13;;;;;;;3.63;1.55;;;;;;;25.37;56.19;101197.44;5072609;28;20035;-60
2021/06/19 01:26:38;;;;;;;4.28;1.98;;;;;;;25.35;56.47;101197.59;5071941;28;20464;-60
2021/06/19 01:29:08;;;;;;;3.38;1.70;;;;;;;25.34;56.38;101194.13;5070222;28;20037;-60
2021/06/19 01:31:36;;;;;;;2.92;1.70;;;;;;;25.34;56.08;101193.25;5072705;28;20480;-59
2021/06/19 01:34:02;;;;;;;2.88;1.52;;;;;;;25.35;56.21;101186.94;5071449;28;20468;-59
2021/06/19 01:36:27;;;;;;;3.03;1.65;;;;;;;25.35;56.45;101186.94;5072666;28;20099;-60
2021/06/19 01:38:55;;;;;;;3.63;1.80;;;;;;;25.33;56.51;101183.63;5072503;28;20035;-60
2021/06/19 01:41:23;;;;;;;2.75;1.60;;;;;;;25.34;56.20;101186.13;5071422;28;20276;-60
2021/06/19 01:43:57;;;;;;;3.05;1.80;;;;;;;25.33;56.14;101189.78;5072794;28;20024;-60
2021/06/19 01:46:23;;;;;;;3.03;1.63;;;;;;;25.33;56.12;101187.09;5072132;28;20025;-60
2021/06/19 01:48:48;;;;;;;2.53;1.45;;;;;;;25.33;56.09;101188.94;5071545;28;20036;-60
2021/06/19 01:51:13;;;;;;;2.80;1.50;;;;;;;25.31;56.22;101185.59;5071985;28;20150;-60
2021/06/19 01:53:40;;;;;;;3.17;1.50;;;;;;;25.33;56.01;101183.63;5072132;28;20281;-60
2021/06/19 01:56:14;;;;;;;3.00;1.50;;;;;;;25.33;56.25;101194.28;5071188;28;20313;-59
2021/06/19 01:58:40;;;;;;;2.85;1.50;;;;;;;25.29;56.31;101185.78;5072362;28;20036;-60
2021/06/19 02:01:08;;;;;;;2.85;1.50;;;;;;;25.32;56.33;101192.59;5072042;28;20028;-60
2021/06/19 02:03:33;;;;;;;3.45;1.63;;;;;;;25.32;56.09;101189.94;5071529;28;20098;-60
2021/06/19 02:05:59;;;;;;;3.40;1.60;;;;;;;25.30;55.99;101183.94;5072013;28;20500;-60
2021/06/19 02:08:30;;;;;;;3.15;1.60;;;;;;;25.28;56.38;101183.28;5071803;28;20020;-60
2021/06/19 02:11:00;;;;;;;2.33;1.23;;;;;;;25.29;56.24;101182.25;5071287;28;20488;-60
2021/06/19 02:13:26;;;;;;;2.72;1.40;;;;;;;25.29;56.36;101188.44;5071878;28;20025;-59
2021/06/19 02:15:52;;;;;;;2.85;1.48;;;;;;;25.29;56.27;101192.94;5071030;28;20098;-60
2021/06/19 02:18:18;;;;;;;2.63;1.65;;;;;;;25.29;55.85;101190.25;5070540;28;20400;-60
2021/06/19 02:20:44;;;;;;;2.42;1.45;;;;;;;25.26;56.17;101191.41;5071736;28;20041;-59
2021/06/19 02:23:10;;;;;;;2.38;1.42;;;;;;;25.29;56.00;101192.94;5071147;28;20060;-60
2021/06/19 02:25:36;;;;;;;2.70;1.52;;;;;;;25.28;56.03;101192.09;5071722;28;20151;-59
2021/06/19 02:28:06;;;;;;;3.05;1.50;;;;;;;25.29;56.18;101190.25;5071624;28;20028;-60
2021/06/19 02:30:38;;;;;;;4.30;1.50;;;;;;;25.26;55.97;101183.41;5071241;28;20077;-60
2021/06/19 02:33:04;;;;;;;2.55;1.50;;;;;;;25.25;56.31;101192.41;5071417;28;20107;-60
2021/06/19 02:35:32;;;;;;;2.70;1.50;;;;;;;25.27;56.27;101195.72;5071685;28;20484;-60
2021/06/19 02:37:58;;;;;;;3.25;1.67;;;;;;;25.28;55.90;101201.94;5070787;28;20417;-60
2021/06/19 02:40:25;;;;;;;2.47;1.42;;;;;;;25.28;56.36;101199.28;5071573;28;20025;-61
2021/06/19 02:42:50;;;;;;;2.60;1.40;;;;;;;25.27;55.98;101206.41;5071781;28;20033;-59
2021/06/19 02:45:16;;;;;;;2.83;1.40;;;;;;;25.26;55.81;101215.41;5070589;28;20093;-60
2021/06/19 02:47:45;;;;;;;2.63;1.50;;;;;;;25.24;55.73;101195.22;5071507;28;20017;-60
2021/06/19 02:50:11;;;;;;;4.07;1.65;;;;;;;25.24;56.32;101200.56;5071515;28;20029;-60
2021/06/19 02:52:43;;;;;;;2.78;1.70;;;;;;;25.25;55.87;101195.06;5070862;28;20098;-60
2021/06/19 02:55:16;;;;;;;2.35;1.40;;;;;;;25.25;55.93;101197.72;5071546;28;20017;-60
2021/06/19 02:57:42;;;;;;;3.00;1.65;;;;;;;25.23;55.87;101193.53;5071657;28;20036;-60
2021/06/19 03:00:14;;;;;;;3.60;1.52;;;;;;;25.25;55.88;101199.56;5070337;28;20024;-60
2021/06/19 03:02:41;;;;;;;2.88;1.40;;;;;;;25.24;55.87;101213.91;5071315;28;20036;-60
2021/06/19 03:05:08;;;;;;;3.45;1.35;;;;;;;25.23;56.23;101223.75;5070662;28;20017;-59
2021/06/19 03:07:34;;;;;;;2.92;1.60;;;;;;;25.23;56.06;101226.41;5071455;28;20040;-59
2021/06/19 03:10:00;;;;;;;2.90;1.52;;;;;;;25.23;55.74;101231.75;5074689;28;20040;-60
2021/06/19 03:12:28;;;;;;;2.90;1.50;;;;;;;25.22;56.09;101230.06;5074222;28;20060;-60
2021/06/19 03:14:55;;;;;;;2.78;1.42;;;;;;;25.22;56.21;101226.56;5075307;28;20028;-60
2021/06/19 03:17:22;;;;;;;2.50;1.30;;;;;;;25.20;56.21;101228.53;5075155;28;20055;-60
2021/06/19 03:19:47;;;;;;;2.95;1.60;;;;;;;25.22;56.06;101227.41;5074507;28;20036;-60
2021/06/19 03:22:24;;;;;;;2.77;1.47;;;;;;;25.21;55.65;101227.56;5075071;28;20036;-60
2021/06/19 03:24:50;;;;;;;3.17;1.70;;;;;;;25.21;55.83;101228.38;5075150;28;20304;-60
2021/06/19 03:27:17;;;;;;;2.70;1.50;;;;;;;25.20;55.89;101229.41;5073966;28;20442;-60
2021/06/19 03:29:42;;;;;;;3.58;1.33;;;;;;;25.18;55.96;101228.69;5074188;28;20058;-60
2021/06/19 03:32:08;;;;;;;3.33;1.50;;;;;;;25.19;56.09;101233.06;5074935;28;20443;-60
2021/06/19 03:34:36;;;;;;;3.45;1.70;;;;;;;25.20;55.77;101231.22;5074002;28;20025;-60
2021/06/19 03:37:04;;;;;;;2.72;1.42;;;;;;;25.19;55.55;101237.56;5074558;28;20525;-60
2021/06/19 03:39:31;;;;;;;3.20;1.45;;;;;;;25.19;55.91;101234.91;5074788;28;20430;-60
2021/06/19 03:41:57;;;;;;;2.38;1.38;;;;;;;25.20;55.71;101241.88;5074090;28;20032;-60
2021/06/19 03:44:23;;;;;;;3.53;1.70;;;;;;;25.14;55.73;101228.19;5074280;28;20368;-59
2021/06/19 03:46:49;;;;;;;2.65;1.60;;;;;;;25.17;55.72;101243.06;5074970;28;20028;-60
2021/06/19 03:49:15;;;;;;;2.80;1.40;;;;;;;25.17;55.53;101249.22;5073821;28;20138;-61
2021/06/19 03:51:43;;;;;;;2.25;1.20;;;;;;;25.17;55.83;101248.38;5074756;28;20021;-60
2021/06/19 03:54:09;;;;;;;3.13;1.60;;;;;;;25.17;55.88;101254.53;5056811;28;20403;-60
2021/06/19 03:56:34;;;;;;;3.28;1.30;;;;;;;25.14;55.71;101252.19;5073688;28;20021;-60
2021/06/19 03:59:00;;;;;;;2.45;1.40;;;;;;;25.16;55.53;101254.72;5074650;28;20032;-60
2021/06/19 04:01:34;;;;;;;4.20;1.60;;;;;;;25.15;55.83;101259.22;5073468;28;20028;-60
2021/06/19 04:04:00;;;;;;;2.63;1.38;;;;;;;25.16;55.54;101279.53;5074489;28;20265;-60
2021/06/19 04:06:25;;;;;;;2.63;1.40;;;;;;;25.16;55.80;101270.72;5074090;28;20024;-60
2021/06/19 04:08:52;;;;;;;2.27;1.33;;;;;;;25.16;55.97;101276.88;5073572;28;20029;-60
2021/06/19 04:11:18;;;;;;;2.45;1.35;;;;;;;25.15;55.57;101274.34;5073787;28;20276;-60
2021/06/19 04:13:49;;;;;;;3.22;1.58;;;;;;;25.15;55.56;101285.03;5056145;28;20426;-60
2021/06/19 04:16:15;;;;;;;2.50;1.40;;;;;;;25.15;55.63;101285.88;5073474;28;20074;-60
2021/06/19 04:18:40;;;;;;;2.93;1.70;;;;;;;25.14;55.79;101278.88;5074021;28;20052;-63
2021/06/19 04:21:07;;;;;;;2.72;1.40;;;;;;;25.14;55.77;101286.03;5072783;28;20062;-60
2021/06/19 04:23:32;;;;;;;2.47;1.50;;;;;;;25.14;55.84;101291.38;5073237;28;20035;-59
2021/06/19 04:25:58;;;;;;;2.40;1.42;;;;;;;25.12;55.67;101294.19;5073740;28;20017;-60
2021/06/19 04:28:24;;;;;;;3.60;1.60;;;;;;;25.14;55.83;101305.53;5073557;28;20032;-60
2021/06/19 04:30:50;;;;;;;2.40;1.40;;;;;;;25.14;55.40;101300.19;5073234;28;20020;-60
2021/06/19 04:33:18;;;;;;;3.42;1.60;;;;;;;25.13;55.45;101311.88;5073686;28;20112;-61
2021/06/19 04:35:43;;;;;;;2.65;1.30;;;;;;;25.12;55.82;101304.88;5073715;28;20028;-60
2021/06/19 04:38:09;;;;;;;2.90;1.67;;;;;;;25.13;55.57;101316.38;5072554;28;20029;-60
2021/06/19 04:40:50;;;;;;;3.00;1.40;;;;;;;25.13;55.69;101311.88;5073513;28;20032;-60
2021/06/19 04:43:17;;;;;;;2.80;1.50;;;;;;;25.13;55.69;101325.22;5073428;28;20265;-60
2021/06/19 04:45:43;;;;;;;2.92;1.65;;;;;;;25.13;55.77;101335.03;5072764;28;20078;-60
2021/06/19 04:48:09;;;;;;;2.22;1.48;;;;;;;25.13;55.32;101335.88;5073099;28;20480;-59
2021/06/19 04:50:36;;;;;;;3.20;1.50;;;;;;;25.13;55.56;101324.38;5072640;28;20094;-60
2021/06/19 04:53:03;;;;;;;2.70;1.50;;;;;;;25.12;55.49;101328.03;5072974;28;20021;-60
2021/06/19 04:55:29;;;;;;;3.00;1.83;;;;;;;25.13;55.23;101335.03;5073241;28;20111;-60
2021/06/19 04:57:57;;;;;;;2.45;1.50;;;;;;;25.12;55.23;101338.72;5072427;28;20032;-60
2021/06/19 05:00:26;;;;;;;2.45;1.50;;;;;;;25.11;55.53;101345.03;5072684;28;20161;-61
2021/06/19 05:02:52;;;;;;;3.05;1.50;;;;;;;25.12;55.23;101344.03;5073075;28;20112;-61
2021/06/19 05:05:18;;;;;;;2.63;1.40;;;;;;;25.11;55.57;101342.38;5072033;28;20480;-60
2021/06/19 05:07:43;;;;;;;2.67;1.60;;;;;;;25.08;55.47;101340.84;5073028;28;20040;-60
2021/06/19 05:10:10;;;;;;;4.05;1.50;;;;;;;25.11;55.62;101345.03;5072550;28;20028;-60
2021/06/19 05:12:37;;;;;;;2.20;1.40;;;;;;;25.09;55.19;101344.38;5072072;28;20115;-61
2021/06/19 05:15:04;;;;;;;3.10;1.60;;;;;;;25.11;55.23;101347.69;5072700;28;20029;-60
2021/06/19 05:17:30;;;;;;;3.17;1.52;;;;;;;25.11;55.06;101361.03;5072720;28;20021;-61
2021/06/19 05:19:58;;;;;;;2.83;1.60;;;;;;;25.11;55.17;101356.53;5072048;28;20109;-61
2021/06/19 05:22:27;;;;;;;3.30;1.50;;;;;;;25.11;55.24;101359.19;5072449;28;20028;-59
2021/06/19 05:24:52;;;;;;;3.03;1.60;;;;;;;25.12;55.49;101370.72;5072871;28;20376;-59
2021/06/19 05:27:18;;;;;;;2.77;1.47;;;;;;;25.10;55.27;101367.34;5071841;28;20028;-60
2021/06/19 05:29:43;;;;;;;2.75;1.35;;;;;;;25.11;55.33;101366.38;5072724;28;20331;-60
2021/06/19 05:32:09;;;;;;;2.92;1.75;;;;;;;25.11;55.36;101377.84;5071986;28;20035;-61
2021/06/19 05:34:40;;;;;;;2.67;1.58;;;;;;;25.11;55.08;101372.53;5071787;28;20103;-59
2021/06/19 05:37:06;;;;;;;3.20;1.70;;;;;;;25.12;54.99;101378.72;5072429;28;20021;-59
2021/06/19 05:39:34;;;;;;;2.80;1.70;;;;;;;25.10;55.33;101373.53;5072501;28;20054;-60
2021/06/19 05:42:02;;;;;;;3.38;1.70;;;;;;;25.12;54.84;101376.88;5071517;28;20413;-60
2021/06/19 05:44:27;;;;;;;2.88;1.50;;;;;;;25.12;55.08;101373.38;5072382;28;20024;-60
2021/06/19 05:46:52;;;;;;;2.95;1.67;;;;;;;25.13;55.29;101380.38;5071086;28;20020;-59
2021/06/19 05:49:18;;;;;;;3.08;1.70;;;;;;;25.13;54.87;101375.03;5071533;28;20040;-60
2021/06/19 05:51:46;;;;;;;3.22;1.60;;;;;;;25.14;54.87;101371.38;5071955;28;20457;-59
2021/06/19 05:54:11;;;;;;;4.10;2.15;;;;;;;25.13;54.02;101378.56;5070285;28;20036;-59
2021/06/19 05:56:37;;;;;;;4.20;2.15;;;;;;;25.11;53.58;101377.03;5072002;28;20066;-60
2021/06/19 05:59:02;;;;;;;3.40;1.92;;;;;;;25.05;53.41;101380.31;5071694;28;20067;-59
2021/06/19 06:01:30;;;;;;;3.22;1.80;;;;;;;25.02;53.46;101381.47;5071273;28;20495;-60
2021/06/19 06:03:56;;;;;;;4.80;2.03;;;;;;;25.01;52.96;101384.28;5071969;28;20384;-60
2021/06/19 06:06:24;;;;;;;3.80;2.10;;;;;;;24.97;53.38;101381.94;5071601;28;20025;-60
2021/06/19 06:08:50;;;;;;;2.97;1.65;;;;;;;24.95;53.46;101380.44;5071380;28;20028;-60
2021/06/19 06:11:15;;;;;;;4.35;1.90;;;;;;;24.97;53.27;101397.94;5071493;28;20027;-62
2021/06/19 06:13:41;;;;;;;4.07;2.10;;;;;;;24.97;53.06;101391.78;5071838;28;20028;-60
2021/06/19 06:16:07;;;;;;;3.30;1.90;;;;;;;24.96;53.28;101400.78;5070869;28;20040;-59
2021/06/19 06:18:33;;;;;;;3.28;1.92;;;;;;;24.95;52.92;101405.25;5071432;28;20044;-60
2021/06/19 06:20:59;;;;;;;4.15;1.88;;;;;;;24.95;52.83;101404.44;5071998;28;20039;-59
2021/06/19 06:23:24;;;;;;;3.80;1.75;;;;;;;24.94;53.21;101410.75;5071155;28;20445;-60
2021/06/19 06:25:51;;;;;;;3.67;1.90;;;;;;;24.96;52.84;101412.28;5071912;28;20036;-59
2021/06/19 06:28:16;;;;;;;3.70;1.90;;;;;;;24.96;52.49;101406.13;5070421;28;20032;-60
2021/06/19 06:30:42;;;;;;;5.47;2.22;;;;;;;24.96;52.51;101417.59;5071181;28;20021;-59
2021/06/19 06:33:10;;;;;;;3.43;1.70;;;;;;;24.96;52.68;101414.94;5071396;28;20099;-59
2021/06/19 06:35:35;;;;;;;3.45;1.88;;;;;;;24.96;52.57;101414.94;5071959;28;20272;-60
2021/06/19 06:38:00;;;;;;;2.92;1.63;;;;;;;24.96;52.79;101411.44;5019118;28;20033;-60
2021/06/19 06:40:26;;;;;;;4.38;2.15;;;;;;;24.97;52.16;101410.44;5070908;28;20031;-60
2021/06/19 06:42:54;;;;;;;3.72;1.85;;;;;;;24.97;52.56;101421.09;5071181;28;20103;-61
2021/06/19 06:45:22;;;;;;;3.50;1.83;;;;;;;24.94;52.02;101410.75;5070403;28;20028;-60
2021/06/19 06:47:48;;;;;;;4.05;1.70;;;;;;;24.89;51.80;101408.53;5071593;28;20034;-59
2021/06/19 06:50:13;;;;;;;2.97;1.40;;;;;;;24.86;51.78;101421.34;5070590;28;20111;-59
2021/06/19 06:52:41;;;;;;;3.50;1.52;;;;;;;24.83;51.29;101416.34;5071606;28;20029;-59
2021/06/19 06:55:08;;;;;;;3.28;1.30;;;;;;;24.79;51.33;101413.97;5071376;28;20033;-59
2021/06/19 06:57:36;;;;;;;2.83;1.50;;;;;;;24.80;51.42;101410.31;5070850;28;20523;-60
2021/06/19 07:00:03;;;;;;;4.22;1.35;;;;;;;24.79;51.57;101419.31;5071371;28;20048;-58
2021/06/19 07:02:29;;;;;;;4.10;1.50;;;;;;;24.76;51.28;101413.47;5071605;28;20115;-61
2021/06/19 07:04:54;;;;;;;4.25;1.63;;;;;;;24.76;51.35;101402.78;5070904;28;20099;-59
2021/06/19 07:07:19;;;;;;;3.90;1.55;;;;;;;24.75;51.36;101401.13;5071089;28;20377;-61
2021/06/19 07:09:48;;;;;;;3.15;1.55;;;;;;;24.74;51.94;101407.47;5071593;28;20048;-59
2021/06/19 07:12:13;;;;;;;3.10;1.45;;;;;;;24.71;51.62;101408.59;5070147;28;20025;-59
2021/06/19 07:14:38;;;;;;;3.27;1.43;;;;;;;24.68;51.93;101408.06;5071757;28;20017;-60
2021/06/19 07:17:08;;;;;;;1.88;1.25;;;;;;;24.69;51.66;101420.38;5074475;28;20280;-59
2021/06/19 07:19:34;;;;;;;2.72;1.55;;;;;;;24.65;51.54;101424.38;5076770;28;20068;-58
2021/06/19 07:21:59;;;;;;;2.70;1.50;;;;;;;24.64;51.96;101423.50;5077008;28;20082;-58
2021/06/19 07:24:24;;;;;;;3.03;1.60;;;;;;;24.63;51.47;101429.84;5076112;28;20025;-59
2021/06/19 07:26:50;;;;;;;3.60;1.80;;;;;;;24.62;51.74;101426.34;5081215;28;20328;-60
2021/06/19 07:29:16;;;;;;;4.20;1.42;;;;;;;24.62;51.38;101434.34;5076992;28;20056;-60
2021/06/19 07:31:41;;;;;;;2.97;1.48;;;;;;;24.59;51.46;101415.16;5073676;28;20052;-59
2021/06/19 07:34:06;;;;;;;2.80;1.48;;;;;;;24.63;51.28;101428.00;5070722;28;20032;-60
2021/06/19 07:36:31;;;;;;;2.60;1.43;;;;;;;24.69;51.24;101436.38;5076218;28;20040;-59
2021/06/19 07:38:57;;;;;;;3.85;1.63;;;;;;;24.73;51.28;101437.75;5074741;28;20288;-59
2021/06/19 07:41:22;;;;;;;3.78;2.10;;;;;;;24.73;51.86;101437.75;5069930;28;20237;-60
2021/06/19 07:43:47;;;;;;;2.70;1.50;;;;;;;24.80;51.49;101441.47;5071088;28;20021;-61
2021/06/19 07:46:19;;;;;;;2.67;1.70;;;;;;;24.86;51.71;101437.34;5071303;28;20059;-58
2021/06/19 07:48:44;;;;;;;3.38;1.60;;;;;;;24.88;52.22;101443.34;5070865;28;20271;-59
2021/06/19 07:51:09;;;;;;;3.90;1.77;;;;;;;24.94;51.86;101445.41;5070283;28;20036;-59
2021/06/19 07:53:34;;;;;;;3.40;2.20;;;;;;;24.93;51.03;101452.56;5072765;28;20024;-59
2021/06/19 07:56:00;;;;;;;4.10;2.42;;;;;;;24.89;50.53;101450.38;5075162;28;20273;-59
2021/06/19 07:58:25;;;;;;;4.13;2.50;;;;;;;24.85;50.17;101457.00;5074642;28;20036;-59
2021/06/19 08:00:51;;;;;;;3.80;2.53;;;;;;;24.85;50.32;101465.00;5074546;28;20047;-59
2021/06/19 08:03:16;;;;;;;3.05;2.10;;;;;;;24.81;50.18;101459.13;5057429;28;20449;-60
2021/06/19 08:05:41;;;;;;;3.80;2.10;;;;;;;24.72;49.77;101460.06;5074481;28;20113;-59
2021/06/19 08:08:06;;;;;;;3.10;1.65;;;;;;;24.58;50.61;101451.63;5079391;28;20154;-59
2021/06/19 08:10:32;;;;;;;4.25;2.10;;;;;;;24.43;50.71;101458.44;5074787;28;20341;-59
2021/06/19 08:12:57;;;;;;;3.22;1.75;;;;;;;24.22;50.40;101451.56;5076364;28;20059;-59
2021/06/19 08:15:23;;;;;;;4.37;2.17;;;;;;;24.13;51.34;101451.63;5074765;28;20040;-59
2021/06/19 08:17:49;;;;;;;3.63;2.15;;;;;;;24.00;51.61;101457.31;5076348;28;20276;-59
2021/06/19 08:20:15;;;;;;;4.13;1.88;;;;;;;23.90;52.36;101460.88;5074907;28;20041;-58
2021/06/19 08:22:41;;;;;;;3.55;1.85;;;;;;;23.84;52.47;101464.13;5075400;28;20055;-60
2021/06/19 08:25:13;;;;;;;4.00;1.60;;;;;;;23.92;52.71;101459.88;5074968;28;20369;-59
2021/06/19 08:27:38;;;;;;;4.22;1.40;;;;;;;24.07;52.73;101469.06;5074733;28;20579;-60
2021/06/19 08:30:08;;;;;;;4.93;1.40;;;;;;;24.19;52.85;101467.00;5072874;28;20020;-59
2021/06/19 08:32:34;;;;;;;2.42;1.50;;;;;;;24.32;52.34;101469.31;5074621;28;20020;-60
2021/06/19 08:34:59;;;;;;;2.67;1.50;;;;;;;24.43;51.96;101474.41;5074638;28;20391;-59
2021/06/19 08:37:24;;;;;;;4.05;1.60;;;;;;;24.52;51.89;101478.00;5073094;28;20095;-59
2021/06/19 08:39:50;;;;;;;2.35;1.30;;;;;;;24.59;52.05;101482.63;5073956;28;20082;-59
2021/06/19 08:42:15;;;;;;;2.88;1.58;;;;;;;24.68;52.08;101486.19;5073482;28;20028;-58
2021/06/19 08:44:45;;;;;;;2.63;1.40;;;;;;;24.78;51.97;101480.75;5073443;28;20039;-59
2021/06/19 08:47:14;;;;;;;3.83;1.40;;;;;;;24.88;52.32;101472.69;5073260;28;20025;-59
2021/06/19 08:49:40;;;;;;;3.65;1.70;;;;;;;24.98;52.15;101482.28;5073805;28;20024;-60
2021/06/19 08:52:07;;;;;;;3.03;1.50;;;;;;;25.06;52.28;101478.00;5073182;28;20069;-59
2021/06/19 08:54:39;;;;;;;2.67;1.60;;;;;;;25.07;51.73;101480.50;5073565;28;20027;-59
2021/06/19 08:57:05;;;;;;;2.80;1.60;;;;;;;25.08;52.27;101473.34;5072693;28;20098;-57
2021/06/19 08:59:31;;;;;;;3.25;1.80;;;;;;;25.11;51.70;101470.38;5073802;28;20025;-60
2021/06/19 09:01:56;;;;;;;3.30;1.90;;;;;;;25.14;51.52;101467.38;5073689;28;20029;-61
2021/06/19 09:04:21;;;;;;;3.93;2.10;;;;;;;25.16;51.47;101476.06;5072721;28;20078;-61
2021/06/19 09:06:46;;;;;;;4.13;1.80;;;;;;;25.16;51.80;101476.06;5070938;28;20557;-62
2021/06/19 09:09:18;;;;;;;3.90;1.88;;;;;;;25.15;51.60;101482.38;5073113;28;20277;-60
2021/06/19 09:11:46;;;;;;;3.63;2.10;;;;;;;25.13;51.67;101477.22;5072832;28;20103;-60
2021/06/19 09:14:15;;;;;;;3.03;1.75;;;;;;;25.15;51.99;101477.03;5072937;28;20029;-59
2021/06/19 09:16:44;;;;;;;2.95;1.75;;;;;;;25.13;52.01;101473.69;5074647;28;20472;-59
2021/06/19 09:19:24;;;;;;;2.50;1.52;;;;;;;25.13;52.08;101477.22;5072042;28;20048;-58
2021/06/19 09:22:17;;;;;;;3.95;2.10;;;;;;;25.15;52.34;101471.72;5072896;28;20456;-59
2021/06/19 09:24:57;;;;;;;3.70;2.10;;;;;;;25.14;52.37;101467.38;5074007;28;20050;-61
2021/06/19 09:27:36;;;;;;;4.28;2.28;;;;;;;25.20;52.16;101473.91;5073989;28;20048;-59
2021/06/19 09:30:17;;;;;;;3.28;2.05;;;;;;;25.22;52.21;101472.78;5074342;28;20024;-63
2021/06/19 09:32:46;;;;;;;3.53;1.83;;;;;;;25.23;52.10;101462.94;5073253;28;20032;-60
2021/06/19 09:35:33;;;;;;;3.20;1.77;;;;;;;25.24;51.82;101469.94;5072918;28;20066;-61
2021/06/19 09:38:02;;;;;;;4.22;2.10;;;;;;;25.24;51.56;101470.78;5072810;28;20030;-60
2021/06/19 09:40:31;;;;;;;4.53;1.90;;;;;;;25.24;51.56;101462.78;5072822;28;20476;-61
2021/06/19 09:43:07;;;;;;;3.05;2.00;;;;;;;25.24;51.79;101462.78;5074832;28;20033;-63
2021/06/19 09:45:36;;;;;;;4.82;2.00;;;;;;;25.25;51.93;101459.13;5074062;28;20024;-63
2021/06/19 09:48:02;;;;;;;3.50;1.80;;;;;;;25.27;51.82;101461.63;5072705;28;20107;-61
2021/06/19 09:50:30;;;;;;;3.28;1.90;;;;;;;25.28;51.87;101458.84;5074439;28;20040;-61
2021/06/19 09:52:55;;;;;;;3.17;1.90;;;;;;;25.30;51.31;101456.03;5074441;28;20020;-62
2021/06/19 09:55:21;;;;;;;3.58;2.13;;;;;;;25.30;51.32;101454.19;5072279;28;20028;-62
2021/06/19 09:57:48;;;;;;;3.65;2.25;;;;;;;25.31;51.51;101455.88;5072913;28;20438;-63
2021/06/19 10:00:19;;;;;;;3.63;2.00;;;;;;;25.32;51.29;101454.84;5072045;28;20377;-60
2021/06/19 10:02:48;;;;;;;3.58;1.92;;;;;;;25.35;51.23;101451.03;5074287;28;20032;-61
2021/06/19 10:05:13;;;;;;;4.20;2.28;;;;;;;25.35;50.99;101435.84;5073719;28;20021;-63
2021/06/19 10:07:51;;;;;;;3.63;2.10;;;;;;;25.36;51.42;101442.06;5073805;28;20032;-62
2021/06/19 10:10:16;;;;;;;3.60;2.10;;;;;;;25.39;51.11;101443.56;5074596;28;20440;-63
2021/06/19 10:12:42;;;;;;;3.45;2.10;;;;;;;25.39;51.45;101451.56;5072331;28;20486;-59
2021/06/19 10:15:12;;;;;;;5.43;2.50;;;;;;;25.39;51.23;101448.88;5071265;28;20017;-60
2021/06/19 10:17:40;;;;;;;4.53;2.20;;;;;;;25.38;51.19;101442.72;5053954;28;20435;-60
2021/06/19 10:20:08;;;;;;;7.03;2.40;;;;;;;25.38;51.26;101442.72;5071055;28;20483;-59
2021/06/19 10:22:35;;;;;;;5.57;2.30;;;;;;;25.37;51.28;101438.38;5071214;28;20059;-59
2021/06/19 10:25:07;;;;;;;4.20;2.22;;;;;;;25.37;51.10;101446.38;5071829;28;20029;-59
2021/06/19 10:27:35;;;;;;;6.15;2.30;;;;;;;25.37;50.88;101442.88;5072086;28;20048;-59
2021/06/19 10:30:03;;;;;;;5.93;2.70;;;;;;;25.36;51.31;101444.72;5071254;28;20025;-60
2021/06/19 10:32:48;;;;;;;4.95;2.35;;;;;;;25.33;50.98;101437.84;5070485;28;20044;-61
2021/06/19 10:35:17;;;;;;;5.03;2.58;;;;;;;25.35;51.16;101443.03;5070679;28;20103;-61
2021/06/19 10:37:44;;;;;;;5.53;2.40;;;;;;;25.35;51.48;101438.53;5071904;28;20051;-61
2021/06/19 10:40:25;;;;;;;5.00;2.50;;;;;;;25.35;51.25;101435.84;5071523;28;20052;-61
2021/06/19 10:42:53;;;;;;;4.07;2.60;;;;;;;25.36;51.41;101431.38;5070831;28;20032;-60
2021/06/19 10:45:21;;;;;;;5.53;2.70;;;;;;;25.38;51.62;101425.88;5071744;28;20044;-59
2021/06/19 10:48:08;;;;;;;7.70;3.17;;;;;;;25.38;51.59;101426.72;5071684;28;20028;-61
2021/06/19 10:50:35;;;;;;;7.43;3.70;;;;;;;25.36;51.78;101420.72;5071010;28;20025;-59
2021/06/19 10:53:09;;;;;;;7.38;3.35;;;;;;;25.38;51.93;101429.38;5071743;28;20036;-59
2021/06/19 10:55:53;;;;;;;7.57;3.40;;;;;;;25.38;51.80;101425.88;5074151;28;20066;-58
2021/06/19 10:58:23;;;;;;;5.53;2.80;;;;;;;25.40;51.98;101416.72;5053254;28;20028;-59
2021/06/19 11:00:56;;;;;;;5.70;2.90;;;;;;;25.42;51.82;101405.88;5072629;28;20479;-59
2021/06/19 11:03:40;;;;;;;4.93;3.13;;;;;;;25.44;51.61;101399.41;5071036;28;20042;-60
2021/06/19 11:06:19;;;;;;;;;;;;;;;25.39;51.93;101395.53;5071668;28;20367;-59
2021/06/19 11:09:01;;;;;;;6.07;3.13;;;;;;;25.36;51.72;101399.38;5071362;28;20431;-57
2021/06/19 11:11:46;;;;;;;5.05;2.80;;;;;;;25.33;52.19;101391.69;5070578;28;20047;-58
2021/06/19 11:14:11;;;;;;;5.75;3.10;;;;;;;25.34;52.32;101394.19;5071180;28;20056;-59
2021/06/19 11:16:37;;;;;;;5.68;3.00;;;;;;;25.34;51.99;101391.53;5071466;28;20051;-58
2021/06/19 11:19:05;;;;;;;7.27;3.37;;;;;;;25.34;52.16;101386.19;5070272;28;20190;-57
2021/06/19 11:21:32;;;;;;;5.07;3.35;;;;;;;25.33;51.97;101381.00;5071406;28;20119;-57
2021/06/19 11:24:04;;;;;;;5.15;3.15;;;;;;;25.33;52.31;101373.84;5071384;28;20040;-58
2021/06/19 11:26:55;;;;;;;6.35;2.97;;;;;;;25.33;52.00;101379.16;5070605;28;20119;-57